sensor_id;sensor_type;location;lat;lon;timestamp;temperature;humidity
24638;DHT22;12773;50.162;8.548;2022-11-20T00:02:11;5.10;99.90
24638;DHT22;12773;50.162;8.548;2022-11-20T00:04:58;5.10;99.90
24638;DHT22;12773;50.162;8.548;2022-11-20T00:07:46;4.90;99.90
24638;DHT22;12773;50.162;8.548;2022-11-20T00:10:38;4.90;99.90
24638;DHT22;12773;50.162;8.548;2022-11-20T00:13:25;4.90;99.90
24638;DHT22;12773;50.162;8.548;2022-11-20T00:16:14;5.00;99.90
24638;DHT22;12773;50.162;8.548;2022-11-20T00:19:02;5.10;99.90
24638;DHT22;12773;50.162;8.548;2022-11-20T00:21:49;5.10;99.90
24638;DHT22;12773;50.162;8.548;2022-11-20T00:24:38;4.90;99.90
24638;DHT22;12773;50.162;8.548;2022-11-20T00:27:27;4.80;99.90
24638;DHT22;12773;50.162;8.548;2022-11-20T00:30:14;4.80;99.90
24638;DHT22;12773;50.162;8.548;2022-11-20T00:33:01;4.70;99.90
24638;DHT22;12773;50.162;8.548;2022-11-20T00:35:49;4.60;99.90
24638;DHT22;12773;50.162;8.548;2022-11-20T00:38:36;4.60;99.90
24638;DHT22;12773;50.162;8.548;2022-11-20T00:41:25;4.60;99.90
24638;DHT22;12773;50.162;8.548;2022-11-20T00:44:12;4.60;99.90
24638;DHT22;12773;50.162;8.548;2022-11-20T00:46:59;4.80;99.90
24638;DHT22;12773;50.162;8.548;2022-11-20T00:49:47;4.90;99.90
24638;DHT22;12773;50.162;8.548;2022-11-20T00:52:35;5.00;99.90
24638;DHT22;12773;50.162;8.548;2022-11-20T00:55:22;5.10;99.90
24638;DHT22;12773;50.162;8.548;2022-11-20T00:58:09;5.20;99.90
24638;DHT22;12773;50.162;8.548;2022-11-20T01:01:14;5.20;99.90
24638;DHT22;12773;50.162;8.548;2022-11-20T01:03:53;5.20;99.90
24638;DHT22;12773;50.162;8.548;2022-11-20T01:06:41;5.30;99.90
24638;DHT22;12773;50.162;8.548;2022-11-20T01:09:28;5.40;99.90
24638;DHT22;12773;50.162;8.548;2022-11-20T01:12:16;5.40;99.90
24638;DHT22;12773;50.162;8.548;2022-11-20T01:15:03;5.40;99.90
24638;DHT22;12773;50.162;8.548;2022-11-20T01:17:51;5.30;99.90
24638;DHT22;12773;50.162;8.548;2022-11-20T01:20:38;5.10;99.90
24638;DHT22;12773;50.162;8.548;2022-11-20T01:23:26;5.00;99.90
24638;DHT22;12773;50.162;8.548;2022-11-20T01:26:16;5.10;99.90
24638;DHT22;12773;50.162;8.548;2022-11-20T01:29:05;5.10;99.90
24638;DHT22;12773;50.162;8.548;2022-11-20T01:31:53;5.00;99.90
24638;DHT22;12773;50.162;8.548;2022-11-20T01:34:40;4.90;99.90
24638;DHT22;12773;50.162;8.548;2022-11-20T01:37:28;5.00;99.90
24638;DHT22;12773;50.162;8.548;2022-11-20T01:40:15;5.10;99.90
24638;DHT22;12773;50.162;8.548;2022-11-20T01:43:10;4.90;99.90
24638;DHT22;12773;50.162;8.548;2022-11-20T01:46:17;4.80;99.90
24638;DHT22;12773;50.162;8.548;2022-11-20T01:49:16;4.90;99.90
24638;DHT22;12773;50.162;8.548;2022-11-20T01:52:26;5.00;99.90
24638;DHT22;12773;50.162;8.548;2022-11-20T01:55:17;5.00;99.90
24638;DHT22;12773;50.162;8.548;2022-11-20T01:58:04;5.00;99.90
24638;DHT22;12773;50.162;8.548;2022-11-20T02:00:52;5.00;99.90
24638;DHT22;12773;50.162;8.548;2022-11-20T02:03:39;5.10;99.90
24638;DHT22;12773;50.162;8.548;2022-11-20T02:06:35;5.10;99.90
24638;DHT22;12773;50.162;8.548;2022-11-20T02:09:16;5.10;99.90
24638;DHT22;12773;50.162;8.548;2022-11-20T02:12:05;5.10;99.90
24638;DHT22;12773;50.162;8.548;2022-11-20T02:14:54;5.10;99.90
24638;DHT22;12773;50.162;8.548;2022-11-20T02:17:42;5.10;99.90
24638;DHT22;12773;50.162;8.548;2022-11-20T02:20:29;5.10;99.90
24638;DHT22;12773;50.162;8.548;2022-11-20T02:23:38;5.10;99.90
24638;DHT22;12773;50.162;8.548;2022-11-20T02:26:27;5.10;99.90
24638;DHT22;12773;50.162;8.548;2022-11-20T02:29:18;5.10;99.90
24638;DHT22;12773;50.162;8.548;2022-11-20T02:32:16;5.10;99.90
24638;DHT22;12773;50.162;8.548;2022-11-20T02:34:55;5.00;99.90
24638;DHT22;12773;50.162;8.548;2022-11-20T02:37:43;4.90;99.90
24638;DHT22;12773;50.162;8.548;2022-11-20T02:40:31;4.70;99.90
24638;DHT22;12773;50.162;8.548;2022-11-20T02:43:18;4.60;99.90
24638;DHT22;12773;50.162;8.548;2022-11-20T02:46:07;4.70;99.90
24638;DHT22;12773;50.162;8.548;2022-11-20T02:48:55;4.70;99.90
24638;DHT22;12773;50.162;8.548;2022-11-20T02:51:42;4.70;99.90
24638;DHT22;12773;50.162;8.548;2022-11-20T02:54:30;4.80;99.90
24638;DHT22;12773;50.162;8.548;2022-11-20T02:57:18;4.80;99.90
24638;DHT22;12773;50.162;8.548;2022-11-20T03:00:06;4.80;99.90
24638;DHT22;12773;50.162;8.548;2022-11-20T03:02:53;4.60;99.90
24638;DHT22;12773;50.162;8.548;2022-11-20T03:05:41;4.50;99.90
24638;DHT22;12773;50.162;8.548;2022-11-20T03:08:29;4.30;99.90
24638;DHT22;12773;50.162;8.548;2022-11-20T03:11:16;4.40;99.90
24638;DHT22;12773;50.162;8.548;2022-11-20T03:14:04;4.50;99.90
24638;DHT22;12773;50.162;8.548;2022-11-20T03:16:52;4.60;99.90
24638;DHT22;12773;50.162;8.548;2022-11-20T03:19:39;4.60;99.90
24638;DHT22;12773;50.162;8.548;2022-11-20T03:22:29;4.50;99.90
24638;DHT22;12773;50.162;8.548;2022-11-20T03:25:16;4.50;99.90
24638;DHT22;12773;50.162;8.548;2022-11-20T03:28:04;4.50;99.90
24638;DHT22;12773;50.162;8.548;2022-11-20T03:30:51;4.60;99.90
24638;DHT22;12773;50.162;8.548;2022-11-20T03:33:39;4.60;99.90
24638;DHT22;12773;50.162;8.548;2022-11-20T03:36:29;4.60;99.90
24638;DHT22;12773;50.162;8.548;2022-11-20T03:39:16;4.70;99.90
24638;DHT22;12773;50.162;8.548;2022-11-20T03:42:04;4.70;99.90
24638;DHT22;12773;50.162;8.548;2022-11-20T03:44:54;4.70;99.90
24638;DHT22;12773;50.162;8.548;2022-11-20T03:47:41;4.70;99.90
24638;DHT22;12773;50.162;8.548;2022-11-20T03:50:28;4.70;99.90
24638;DHT22;12773;50.162;8.548;2022-11-20T03:53:16;4.70;99.90
24638;DHT22;12773;50.162;8.548;2022-11-20T03:56:04;4.70;99.90
24638;DHT22;12773;50.162;8.548;2022-11-20T03:58:52;4.70;99.90
24638;DHT22;12773;50.162;8.548;2022-11-20T04:01:40;4.70;99.90
24638;DHT22;12773;50.162;8.548;2022-11-20T04:04:29;4.80;99.90
24638;DHT22;12773;50.162;8.548;2022-11-20T04:07:16;4.80;99.90
24638;DHT22;12773;50.162;8.548;2022-11-20T04:10:04;4.70;99.90
24638;DHT22;12773;50.162;8.548;2022-11-20T04:12:51;4.70;99.90
24638;DHT22;12773;50.162;8.548;2022-11-20T04:15:39;4.50;99.90
24638;DHT22;12773;50.162;8.548;2022-11-20T04:18:26;4.60;99.90
24638;DHT22;12773;50.162;8.548;2022-11-20T04:21:14;4.70;99.90
24638;DHT22;12773;50.162;8.548;2022-11-20T04:24:01;4.60;99.90
24638;DHT22;12773;50.162;8.548;2022-11-20T04:26:49;4.50;99.90
24638;DHT22;12773;50.162;8.548;2022-11-20T04:29:38;4.60;99.90
24638;DHT22;12773;50.162;8.548;2022-11-20T04:32:25;4.60;99.90
24638;DHT22;12773;50.162;8.548;2022-11-20T04:35:13;4.60;99.90
24638;DHT22;12773;50.162;8.548;2022-11-20T04:38:00;4.70;99.90
24638;DHT22;12773;50.162;8.548;2022-11-20T04:40:47;4.80;99.90
24638;DHT22;12773;50.162;8.548;2022-11-20T04:43:35;4.80;99.90
24638;DHT22;12773;50.162;8.548;2022-11-20T04:46:22;4.70;99.90
24638;DHT22;12773;50.162;8.548;2022-11-20T04:49:10;4.60;99.90
24638;DHT22;12773;50.162;8.548;2022-11-20T04:51:59;4.60;99.90
24638;DHT22;12773;50.162;8.548;2022-11-20T04:54:47;4.70;99.90
24638;DHT22;12773;50.162;8.548;2022-11-20T04:57:34;4.80;99.90
24638;DHT22;12773;50.162;8.548;2022-11-20T05:00:22;4.70;99.90
24638;DHT22;12773;50.162;8.548;2022-11-20T05:03:09;4.80;99.90
24638;DHT22;12773;50.162;8.548;2022-11-20T05:06:02;4.90;99.90
24638;DHT22;12773;50.162;8.548;2022-11-20T05:08:55;4.90;99.90
24638;DHT22;12773;50.162;8.548;2022-11-20T05:11:39;4.80;99.90
24638;DHT22;12773;50.162;8.548;2022-11-20T05:14:26;4.80;99.90
24638;DHT22;12773;50.162;8.548;2022-11-20T05:17:13;4.80;99.90
24638;DHT22;12773;50.162;8.548;2022-11-20T05:20:01;4.90;99.90
24638;DHT22;12773;50.162;8.548;2022-11-20T05:22:48;4.80;99.90
24638;DHT22;12773;50.162;8.548;2022-11-20T05:25:39;4.90;99.90
24638;DHT22;12773;50.162;8.548;2022-11-20T05:28:27;4.90;99.90
24638;DHT22;12773;50.162;8.548;2022-11-20T05:31:17;4.80;99.90
24638;DHT22;12773;50.162;8.548;2022-11-20T05:34:07;4.80;99.90
24638;DHT22;12773;50.162;8.548;2022-11-20T05:36:54;4.80;99.90
24638;DHT22;12773;50.162;8.548;2022-11-20T05:39:42;4.80;99.90
24638;DHT22;12773;50.162;8.548;2022-11-20T05:42:32;4.80;99.90
24638;DHT22;12773;50.162;8.548;2022-11-20T05:45:19;4.80;99.90
24638;DHT22;12773;50.162;8.548;2022-11-20T05:48:10;4.80;99.90
24638;DHT22;12773;50.162;8.548;2022-11-20T05:50:58;4.80;99.90
24638;DHT22;12773;50.162;8.548;2022-11-20T05:53:46;4.90;99.90
24638;DHT22;12773;50.162;8.548;2022-11-20T05:56:35;4.90;99.90
24638;DHT22;12773;50.162;8.548;2022-11-20T05:59:23;4.90;99.90
24638;DHT22;12773;50.162;8.548;2022-11-20T06:02:10;5.00;99.90
24638;DHT22;12773;50.162;8.548;2022-11-20T06:04:58;4.80;99.90
24638;DHT22;12773;50.162;8.548;2022-11-20T06:07:54;4.90;99.90
24638;DHT22;12773;50.162;8.548;2022-11-20T06:10:41;4.80;99.90
24638;DHT22;12773;50.162;8.548;2022-11-20T06:13:29;4.90;99.90
24638;DHT22;12773;50.162;8.548;2022-11-20T06:16:18;5.00;99.90
24638;DHT22;12773;50.162;8.548;2022-11-20T06:19:11;5.00;99.90
24638;DHT22;12773;50.162;8.548;2022-11-20T06:21:58;5.10;99.90
24638;DHT22;12773;50.162;8.548;2022-11-20T06:24:45;5.10;99.90
24638;DHT22;12773;50.162;8.548;2022-11-20T06:27:32;5.10;99.90
24638;DHT22;12773;50.162;8.548;2022-11-20T06:30:25;4.90;99.90
24638;DHT22;12773;50.162;8.548;2022-11-20T06:33:09;4.70;99.90
24638;DHT22;12773;50.162;8.548;2022-11-20T06:35:57;4.60;99.90
24638;DHT22;12773;50.162;8.548;2022-11-20T06:38:49;4.70;99.90
24638;DHT22;12773;50.162;8.548;2022-11-20T06:41:40;4.80;99.90
24638;DHT22;12773;50.162;8.548;2022-11-20T06:44:27;4.80;99.90
24638;DHT22;12773;50.162;8.548;2022-11-20T06:47:14;4.80;99.90
24638;DHT22;12773;50.162;8.548;2022-11-20T06:50:02;4.90;99.90
24638;DHT22;12773;50.162;8.548;2022-11-20T06:52:49;4.90;99.90
24638;DHT22;12773;50.162;8.548;2022-11-20T06:55:47;4.90;99.90
24638;DHT22;12773;50.162;8.548;2022-11-20T06:58:35;4.80;99.90
24638;DHT22;12773;50.162;8.548;2022-11-20T07:01:23;4.90;99.90
24638;DHT22;12773;50.162;8.548;2022-11-20T07:04:11;4.90;99.90
24638;DHT22;12773;50.162;8.548;2022-11-20T07:07:00;4.90;99.90
24638;DHT22;12773;50.162;8.548;2022-11-20T07:09:48;4.90;99.90
24638;DHT22;12773;50.162;8.548;2022-11-20T07:12:35;4.90;99.90
24638;DHT22;12773;50.162;8.548;2022-11-20T07:15:23;4.90;99.90
24638;DHT22;12773;50.162;8.548;2022-11-20T07:18:11;4.90;99.90
24638;DHT22;12773;50.162;8.548;2022-11-20T07:21:03;4.90;99.90
24638;DHT22;12773;50.162;8.548;2022-11-20T07:23:51;4.80;99.90
24638;DHT22;12773;50.162;8.548;2022-11-20T07:26:39;4.70;99.90
24638;DHT22;12773;50.162;8.548;2022-11-20T07:29:26;4.80;99.90
24638;DHT22;12773;50.162;8.548;2022-11-20T07:32:14;4.70;99.90
24638;DHT22;12773;50.162;8.548;2022-11-20T07:35:01;4.80;99.90
24638;DHT22;12773;50.162;8.548;2022-11-20T07:37:49;4.90;99.90
24638;DHT22;12773;50.162;8.548;2022-11-20T07:40:38;4.90;99.90
24638;DHT22;12773;50.162;8.548;2022-11-20T07:43:26;5.00;99.90
24638;DHT22;12773;50.162;8.548;2022-11-20T07:46:13;5.10;99.90
24638;DHT22;12773;50.162;8.548;2022-11-20T07:49:00;5.10;99.90
24638;DHT22;12773;50.162;8.548;2022-11-20T07:51:52;5.00;99.90
24638;DHT22;12773;50.162;8.548;2022-11-20T07:54:44;5.10;99.90
24638;DHT22;12773;50.162;8.548;2022-11-20T07:57:31;5.10;99.90
24638;DHT22;12773;50.162;8.548;2022-11-20T08:00:19;5.00;99.90
24638;DHT22;12773;50.162;8.548;2022-11-20T08:03:09;4.90;99.90
24638;DHT22;12773;50.162;8.548;2022-11-20T08:05:59;4.90;99.90
24638;DHT22;12773;50.162;8.548;2022-11-20T08:08:47;4.90;99.90
24638;DHT22;12773;50.162;8.548;2022-11-20T08:11:35;5.00;99.90
24638;DHT22;12773;50.162;8.548;2022-11-20T08:14:40;5.00;99.90
24638;DHT22;12773;50.162;8.548;2022-11-20T08:17:28;5.20;99.90
24638;DHT22;12773;50.162;8.548;2022-11-20T08:20:15;5.20;99.90
24638;DHT22;12773;50.162;8.548;2022-11-20T08:23:05;5.30;99.90
24638;DHT22;12773;50.162;8.548;2022-11-20T08:25:53;5.30;99.90
24638;DHT22;12773;50.162;8.548;2022-11-20T08:28:40;5.20;99.90
24638;DHT22;12773;50.162;8.548;2022-11-20T08:31:28;5.10;99.90
24638;DHT22;12773;50.162;8.548;2022-11-20T08:34:16;5.10;99.90
24638;DHT22;12773;50.162;8.548;2022-11-20T08:37:04;5.20;99.90
24638;DHT22;12773;50.162;8.548;2022-11-20T08:39:52;5.30;99.90
24638;DHT22;12773;50.162;8.548;2022-11-20T08:42:48;5.30;99.90
24638;DHT22;12773;50.162;8.548;2022-11-20T08:45:38;5.60;99.90
24638;DHT22;12773;50.162;8.548;2022-11-20T08:48:26;5.80;99.90
24638;DHT22;12773;50.162;8.548;2022-11-20T08:51:14;5.70;99.90
24638;DHT22;12773;50.162;8.548;2022-11-20T08:54:02;5.70;99.90
24638;DHT22;12773;50.162;8.548;2022-11-20T08:56:53;5.70;99.90
24638;DHT22;12773;50.162;8.548;2022-11-20T08:59:43;5.50;99.90
24638;DHT22;12773;50.162;8.548;2022-11-20T09:02:32;5.40;99.90
24638;DHT22;12773;50.162;8.548;2022-11-20T09:05:19;5.40;99.90
24638;DHT22;12773;50.162;8.548;2022-11-20T09:08:07;5.50;99.90
24638;DHT22;12773;50.162;8.548;2022-11-20T09:10:55;5.50;99.90
24638;DHT22;12773;50.162;8.548;2022-11-20T09:13:43;5.50;99.90
24638;DHT22;12773;50.162;8.548;2022-11-20T09:16:30;5.70;99.90
24638;DHT22;12773;50.162;8.548;2022-11-20T09:19:24;6.00;99.90
24638;DHT22;12773;50.162;8.548;2022-11-20T09:22:13;6.00;99.90
24638;DHT22;12773;50.162;8.548;2022-11-20T09:25:03;6.20;99.90
24638;DHT22;12773;50.162;8.548;2022-11-20T09:27:58;6.40;99.90
24638;DHT22;12773;50.162;8.548;2022-11-20T09:30:45;6.60;99.90
24638;DHT22;12773;50.162;8.548;2022-11-20T09:33:33;6.60;99.90
24638;DHT22;12773;50.162;8.548;2022-11-20T09:36:22;6.60;99.90
24638;DHT22;12773;50.162;8.548;2022-11-20T09:39:11;6.80;99.90
24638;DHT22;12773;50.162;8.548;2022-11-20T09:42:14;7.00;99.90
24638;DHT22;12773;50.162;8.548;2022-11-20T09:48:32;7.20;99.90
24638;DHT22;12773;50.162;8.548;2022-11-20T09:57:23;7.10;99.90
24638;DHT22;12773;50.162;8.548;2022-11-20T10:00:12;6.90;99.90
24638;DHT22;12773;50.162;8.548;2022-11-20T10:03:03;6.90;99.90
24638;DHT22;12773;50.162;8.548;2022-11-20T10:05:54;6.90;99.90
24638;DHT22;12773;50.162;8.548;2022-11-20T10:08:51;6.80;99.90
24638;DHT22;12773;50.162;8.548;2022-11-20T10:11:51;6.60;99.90
24638;DHT22;12773;50.162;8.548;2022-11-20T10:15:26;6.60;99.90
24638;DHT22;12773;50.162;8.548;2022-11-20T10:17:50;6.70;99.90
24638;DHT22;12773;50.162;8.548;2022-11-20T10:21:00;6.60;99.90
24638;DHT22;12773;50.162;8.548;2022-11-20T10:27:14;6.50;99.90
24638;DHT22;12773;50.162;8.548;2022-11-20T10:30:18;6.40;99.90
24638;DHT22;12773;50.162;8.548;2022-11-20T10:32:56;6.40;99.90
24638;DHT22;12773;50.162;8.548;2022-11-20T10:36:03;6.40;99.90
24638;DHT22;12773;50.162;8.548;2022-11-20T10:38:50;6.50;99.90
24638;DHT22;12773;50.162;8.548;2022-11-20T10:41:40;6.60;99.90
24638;DHT22;12773;50.162;8.548;2022-11-20T10:44:29;6.70;99.90
24638;DHT22;12773;50.162;8.548;2022-11-20T10:47:36;6.80;99.90
24638;DHT22;12773;50.162;8.548;2022-11-20T10:50:23;6.70;99.90
24638;DHT22;12773;50.162;8.548;2022-11-20T10:56:33;6.80;99.90
24638;DHT22;12773;50.162;8.548;2022-11-20T11:02:46;7.20;99.90
24638;DHT22;12773;50.162;8.548;2022-11-20T11:08:19;7.00;99.90
24638;DHT22;12773;50.162;8.548;2022-11-20T11:11:24;7.00;99.90
24638;DHT22;12773;50.162;8.548;2022-11-20T11:14:14;6.90;99.90
24638;DHT22;12773;50.162;8.548;2022-11-20T11:17:02;6.80;99.90
24638;DHT22;12773;50.162;8.548;2022-11-20T11:20:04;6.90;99.90
24638;DHT22;12773;50.162;8.548;2022-11-20T11:22:59;6.90;99.90
24638;DHT22;12773;50.162;8.548;2022-11-20T11:25:42;6.90;99.90
24638;DHT22;12773;50.162;8.548;2022-11-20T11:28:29;6.80;99.90
24638;DHT22;12773;50.162;8.548;2022-11-20T11:31:27;6.80;99.90
24638;DHT22;12773;50.162;8.548;2022-11-20T11:34:16;6.80;99.90
24638;DHT22;12773;50.162;8.548;2022-11-20T11:37:05;6.90;99.90
24638;DHT22;12773;50.162;8.548;2022-11-20T11:39:54;7.00;99.90
24638;DHT22;12773;50.162;8.548;2022-11-20T11:42:46;7.00;99.90
24638;DHT22;12773;50.162;8.548;2022-11-20T11:45:33;7.10;99.90
24638;DHT22;12773;50.162;8.548;2022-11-20T11:48:21;7.50;99.90
24638;DHT22;12773;50.162;8.548;2022-11-20T11:51:09;7.70;99.90
24638;DHT22;12773;50.162;8.548;2022-11-20T11:53:58;7.90;99.90
24638;DHT22;12773;50.162;8.548;2022-11-20T11:56:46;7.80;99.90
24638;DHT22;12773;50.162;8.548;2022-11-20T12:05:42;7.60;99.90
24638;DHT22;12773;50.162;8.548;2022-11-20T12:08:53;7.50;99.90
24638;DHT22;12773;50.162;8.548;2022-11-20T12:11:53;7.30;99.90
24638;DHT22;12773;50.162;8.548;2022-11-20T12:14:42;7.40;99.90
24638;DHT22;12773;50.162;8.548;2022-11-20T12:17:30;7.70;99.90
24638;DHT22;12773;50.162;8.548;2022-11-20T12:20:17;8.00;99.90
24638;DHT22;12773;50.162;8.548;2022-11-20T12:26:02;7.90;99.90
24638;DHT22;12773;50.162;8.548;2022-11-20T12:28:58;7.90;99.90
24638;DHT22;12773;50.162;8.548;2022-11-20T12:32:06;7.80;99.90
24638;DHT22;12773;50.162;8.548;2022-11-20T12:41:47;7.20;99.90
24638;DHT22;12773;50.162;8.548;2022-11-20T12:45:14;7.20;99.90
24638;DHT22;12773;50.162;8.548;2022-11-20T13:00:19;7.50;99.90
24638;DHT22;12773;50.162;8.548;2022-11-20T13:03:27;7.70;99.90
24638;DHT22;12773;50.162;8.548;2022-11-20T13:06:19;7.80;99.90
24638;DHT22;12773;50.162;8.548;2022-11-20T13:09:14;7.80;99.90
24638;DHT22;12773;50.162;8.548;2022-11-20T13:15:21;7.90;99.90
24638;DHT22;12773;50.162;8.548;2022-11-20T13:18:10;7.80;99.90
24638;DHT22;12773;50.162;8.548;2022-11-20T13:20:58;7.60;99.90
24638;DHT22;12773;50.162;8.548;2022-11-20T13:23:45;7.60;99.90
24638;DHT22;12773;50.162;8.548;2022-11-20T13:26:33;7.80;99.90
24638;DHT22;12773;50.162;8.548;2022-11-20T13:29:20;7.70;99.90
24638;DHT22;12773;50.162;8.548;2022-11-20T13:35:03;7.80;99.90
24638;DHT22;12773;50.162;8.548;2022-11-20T13:37:59;8.10;99.90
24638;DHT22;12773;50.162;8.548;2022-11-20T13:41:02;8.30;99.90
24638;DHT22;12773;50.162;8.548;2022-11-20T13:43:52;8.30;99.90
24638;DHT22;12773;50.162;8.548;2022-11-20T13:46:47;8.10;99.90
24638;DHT22;12773;50.162;8.548;2022-11-20T13:49:39;8.00;99.90
24638;DHT22;12773;50.162;8.548;2022-11-20T13:55:54;7.60;99.90
24638;DHT22;12773;50.162;8.548;2022-11-20T13:58:46;7.70;99.90
24638;DHT22;12773;50.162;8.548;2022-11-20T14:01:33;7.70;99.90
24638;DHT22;12773;50.162;8.548;2022-11-20T14:04:26;7.80;99.90
24638;DHT22;12773;50.162;8.548;2022-11-20T14:07:15;7.90;99.90
24638;DHT22;12773;50.162;8.548;2022-11-20T14:10:03;7.90;99.90
24638;DHT22;12773;50.162;8.548;2022-11-20T14:12:50;8.00;99.90
24638;DHT22;12773;50.162;8.548;2022-11-20T14:15:37;8.00;99.90
24638;DHT22;12773;50.162;8.548;2022-11-20T14:18:27;7.90;99.90
24638;DHT22;12773;50.162;8.548;2022-11-20T14:21:26;7.80;99.90
24638;DHT22;12773;50.162;8.548;2022-11-20T14:24:19;7.80;99.90
24638;DHT22;12773;50.162;8.548;2022-11-20T14:27:12;7.90;99.90
24638;DHT22;12773;50.162;8.548;2022-11-20T14:30:01;8.00;99.90
24638;DHT22;12773;50.162;8.548;2022-11-20T14:32:49;8.00;99.90
24638;DHT22;12773;50.162;8.548;2022-11-20T14:35:46;8.00;99.90
24638;DHT22;12773;50.162;8.548;2022-11-20T14:38:34;8.20;99.90
24638;DHT22;12773;50.162;8.548;2022-11-20T14:41:23;8.20;99.90
24638;DHT22;12773;50.162;8.548;2022-11-20T14:44:10;8.20;99.90
24638;DHT22;12773;50.162;8.548;2022-11-20T14:46:59;8.20;99.90
24638;DHT22;12773;50.162;8.548;2022-11-20T14:49:48;8.30;99.90
24638;DHT22;12773;50.162;8.548;2022-11-20T14:52:35;8.20;99.90
24638;DHT22;12773;50.162;8.548;2022-11-20T14:58:23;8.30;99.90
24638;DHT22;12773;50.162;8.548;2022-11-20T15:01:12;8.10;99.90
24638;DHT22;12773;50.162;8.548;2022-11-20T15:04:09;8.00;99.90
24638;DHT22;12773;50.162;8.548;2022-11-20T15:06:58;7.90;99.90
24638;DHT22;12773;50.162;8.548;2022-11-20T15:09:46;7.80;99.90
24638;DHT22;12773;50.162;8.548;2022-11-20T15:12:39;7.60;99.90
24638;DHT22;12773;50.162;8.548;2022-11-20T15:15:43;7.70;99.90
24638;DHT22;12773;50.162;8.548;2022-11-20T15:18:36;7.60;99.90
24638;DHT22;12773;50.162;8.548;2022-11-20T15:21:24;7.60;99.90
24638;DHT22;12773;50.162;8.548;2022-11-20T15:24:12;7.50;99.90
24638;DHT22;12773;50.162;8.548;2022-11-20T15:26:59;7.50;99.90
24638;DHT22;12773;50.162;8.548;2022-11-20T15:29:47;7.60;99.90
24638;DHT22;12773;50.162;8.548;2022-11-20T15:32:35;7.60;99.90
24638;DHT22;12773;50.162;8.548;2022-11-20T15:35:22;7.60;99.90
24638;DHT22;12773;50.162;8.548;2022-11-20T15:38:10;7.70;99.90
24638;DHT22;12773;50.162;8.548;2022-11-20T15:40:57;7.60;99.90
24638;DHT22;12773;50.162;8.548;2022-11-20T15:43:45;7.60;99.90
24638;DHT22;12773;50.162;8.548;2022-11-20T15:46:39;7.60;99.90
24638;DHT22;12773;50.162;8.548;2022-11-20T15:49:24;7.70;99.90
24638;DHT22;12773;50.162;8.548;2022-11-20T15:52:12;7.70;99.90
24638;DHT22;12773;50.162;8.548;2022-11-20T15:55:00;7.70;99.90
24638;DHT22;12773;50.162;8.548;2022-11-20T15:57:49;7.70;99.90
24638;DHT22;12773;50.162;8.548;2022-11-20T16:00:36;7.70;99.90
24638;DHT22;12773;50.162;8.548;2022-11-20T16:03:24;7.70;99.90
24638;DHT22;12773;50.162;8.548;2022-11-20T16:06:11;7.80;99.90
24638;DHT22;12773;50.162;8.548;2022-11-20T16:08:59;7.70;99.90
24638;DHT22;12773;50.162;8.548;2022-11-20T16:11:46;7.70;99.90
24638;DHT22;12773;50.162;8.548;2022-11-20T16:14:33;7.60;99.90
24638;DHT22;12773;50.162;8.548;2022-11-20T16:17:37;7.60;99.90
24638;DHT22;12773;50.162;8.548;2022-11-20T16:20:30;7.60;99.90
24638;DHT22;12773;50.162;8.548;2022-11-20T16:23:18;7.70;99.90
24638;DHT22;12773;50.162;8.548;2022-11-20T16:26:14;7.60;99.90
24638;DHT22;12773;50.162;8.548;2022-11-20T16:29:04;7.60;99.90
24638;DHT22;12773;50.162;8.548;2022-11-20T16:31:52;7.60;99.90
24638;DHT22;12773;50.162;8.548;2022-11-20T16:34:39;7.70;99.90
24638;DHT22;12773;50.162;8.548;2022-11-20T16:37:26;7.70;99.90
24638;DHT22;12773;50.162;8.548;2022-11-20T16:40:14;7.80;99.90
24638;DHT22;12773;50.162;8.548;2022-11-20T16:43:09;7.90;99.90
24638;DHT22;12773;50.162;8.548;2022-11-20T16:45:57;7.80;99.90
24638;DHT22;12773;50.162;8.548;2022-11-20T16:48:45;7.70;99.90
24638;DHT22;12773;50.162;8.548;2022-11-20T16:51:36;7.80;99.90
24638;DHT22;12773;50.162;8.548;2022-11-20T16:54:24;7.80;99.90
24638;DHT22;12773;50.162;8.548;2022-11-20T16:57:12;7.80;99.90
24638;DHT22;12773;50.162;8.548;2022-11-20T16:59:59;7.70;99.90
24638;DHT22;12773;50.162;8.548;2022-11-20T17:02:48;7.50;99.90
24638;DHT22;12773;50.162;8.548;2022-11-20T17:05:35;7.60;99.90
24638;DHT22;12773;50.162;8.548;2022-11-20T17:08:23;7.60;99.90
24638;DHT22;12773;50.162;8.548;2022-11-20T17:11:12;7.80;99.90
24638;DHT22;12773;50.162;8.548;2022-11-20T17:13:59;7.80;99.90
24638;DHT22;12773;50.162;8.548;2022-11-20T17:16:48;8.00;99.90
24638;DHT22;12773;50.162;8.548;2022-11-20T17:19:36;8.00;99.90
24638;DHT22;12773;50.162;8.548;2022-11-20T17:22:22;8.00;99.90
24638;DHT22;12773;50.162;8.548;2022-11-20T17:25:10;8.00;99.90
24638;DHT22;12773;50.162;8.548;2022-11-20T17:27:57;8.00;99.90
24638;DHT22;12773;50.162;8.548;2022-11-20T17:30:45;8.00;99.90
24638;DHT22;12773;50.162;8.548;2022-11-20T17:33:34;7.90;99.90
24638;DHT22;12773;50.162;8.548;2022-11-20T17:36:22;8.00;99.90
24638;DHT22;12773;50.162;8.548;2022-11-20T17:39:10;8.10;99.90
24638;DHT22;12773;50.162;8.548;2022-11-20T17:41:58;8.10;99.90
24638;DHT22;12773;50.162;8.548;2022-11-20T17:45:04;8.20;99.90
24638;DHT22;12773;50.162;8.548;2022-11-20T17:47:52;8.10;99.90
24638;DHT22;12773;50.162;8.548;2022-11-20T17:50:39;8.10;99.90
24638;DHT22;12773;50.162;8.548;2022-11-20T17:53:27;8.20;99.90
24638;DHT22;12773;50.162;8.548;2022-11-20T17:56:15;8.10;99.90
24638;DHT22;12773;50.162;8.548;2022-11-20T17:59:21;8.10;99.90
24638;DHT22;12773;50.162;8.548;2022-11-20T18:02:09;8.10;99.90
24638;DHT22;12773;50.162;8.548;2022-11-20T18:04:56;8.20;99.90
24638;DHT22;12773;50.162;8.548;2022-11-20T18:07:43;8.30;99.90
24638;DHT22;12773;50.162;8.548;2022-11-20T18:10:31;8.30;99.90
24638;DHT22;12773;50.162;8.548;2022-11-20T18:13:18;8.40;99.90
24638;DHT22;12773;50.162;8.548;2022-11-20T18:16:07;8.40;99.90
24638;DHT22;12773;50.162;8.548;2022-11-20T18:18:56;8.40;99.90
24638;DHT22;12773;50.162;8.548;2022-11-20T18:21:43;8.40;99.90
24638;DHT22;12773;50.162;8.548;2022-11-20T18:24:31;8.40;99.90
24638;DHT22;12773;50.162;8.548;2022-11-20T18:27:20;8.30;99.90
24638;DHT22;12773;50.162;8.548;2022-11-20T18:30:09;8.30;99.90
24638;DHT22;12773;50.162;8.548;2022-11-20T18:32:56;8.30;99.90
24638;DHT22;12773;50.162;8.548;2022-11-20T18:35:44;8.30;99.90
24638;DHT22;12773;50.162;8.548;2022-11-20T18:38:31;8.20;99.90
24638;DHT22;12773;50.162;8.548;2022-11-20T18:41:21;8.20;99.90
24638;DHT22;12773;50.162;8.548;2022-11-20T18:44:30;8.20;99.90
24638;DHT22;12773;50.162;8.548;2022-11-20T18:47:34;8.30;99.90
24638;DHT22;12773;50.162;8.548;2022-11-20T18:50:24;8.20;99.90
24638;DHT22;12773;50.162;8.548;2022-11-20T18:53:11;8.20;99.90
24638;DHT22;12773;50.162;8.548;2022-11-20T18:56:03;8.20;99.90
24638;DHT22;12773;50.162;8.548;2022-11-20T18:58:51;8.20;99.90
24638;DHT22;12773;50.162;8.548;2022-11-20T19:01:40;8.10;99.90
24638;DHT22;12773;50.162;8.548;2022-11-20T19:04:27;8.00;99.90
24638;DHT22;12773;50.162;8.548;2022-11-20T19:07:15;8.10;99.90
24638;DHT22;12773;50.162;8.548;2022-11-20T19:10:02;8.00;99.90
24638;DHT22;12773;50.162;8.548;2022-11-20T19:12:51;8.00;99.90